createdAt,value
2018-08-23T00:00:42.047Z,21.60
2018-08-23T00:03:15.577Z,21.80
2018-08-23T00:05:49.089Z,21.90
2018-08-23T00:08:16.242Z,21.80
2018-08-23T00:10:43.377Z,21.80
2018-08-23T00:13:10.633Z,21.80
2018-08-23T00:15:37.773Z,21.80
2018-08-23T00:18:04.933Z,21.70
2018-08-23T00:20:34.725Z,21.60
2018-08-23T00:23:02.429Z,21.50
2018-08-23T00:25:29.920Z,21.40
2018-08-23T00:27:57.045Z,21.40
2018-08-23T00:30:27.780Z,21.30
2018-08-23T00:32:55.194Z,21.30
2018-08-23T00:35:22.378Z,21.30
2018-08-23T00:37:49.576Z,21.30
2018-08-23T00:40:17.089Z,21.30
2018-08-23T00:42:46.437Z,21.30
2018-08-23T00:45:16.834Z,21.30
2018-08-23T00:47:44.125Z,21.40
2018-08-23T00:50:16.065Z,21.60
2018-08-23T00:52:44.581Z,21.80
2018-08-23T00:55:20.979Z,21.90
2018-08-23T00:57:48.138Z,21.90
2018-08-23T01:00:15.772Z,21.80
2018-08-23T01:02:46.325Z,21.70
2018-08-23T01:05:14.507Z,21.60
2018-08-23T01:07:42.609Z,21.50
2018-08-23T01:10:09.769Z,21.40
2018-08-23T01:12:47.477Z,21.30
2018-08-23T01:15:14.669Z,21.10
2018-08-23T01:17:42.230Z,21.00
2018-08-23T01:20:09.382Z,20.90
2018-08-23T01:22:41.164Z,20.80
2018-08-23T01:25:08.365Z,20.90
2018-08-23T01:27:37.565Z,20.90
2018-08-23T01:30:05.063Z,20.90
2018-08-23T01:32:33.023Z,20.90
2018-08-23T01:35:00.166Z,21.00
2018-08-23T01:37:34.828Z,21.00
2018-08-23T01:40:03.286Z,21.00
2018-08-23T01:42:33.406Z,21.00
2018-08-23T01:45:01.655Z,20.90
2018-08-23T01:47:29.726Z,20.80
2018-08-23T01:49:56.866Z,20.70
2018-08-23T01:52:24.344Z,20.70
2018-08-23T01:54:51.485Z,20.70
2018-08-23T01:57:23.280Z,20.80
2018-08-23T01:59:50.445Z,20.80
2018-08-23T02:02:17.598Z,20.70
2018-08-23T02:04:45.620Z,20.70
2018-08-23T02:07:12.801Z,20.50
2018-08-23T02:09:40.043Z,20.50
2018-08-23T02:12:07.242Z,20.50
2018-08-23T02:14:39.298Z,20.50
2018-08-23T02:17:06.441Z,20.50
2018-08-23T02:19:38.201Z,20.60
2018-08-23T02:22:05.657Z,20.60
2018-08-23T02:24:34.889Z,20.60
2018-08-23T02:27:02.073Z,20.70
2018-08-23T02:29:36.161Z,20.70
2018-08-23T02:32:04.082Z,20.70
2018-08-23T02:34:36.932Z,20.80
2018-08-23T02:37:04.063Z,20.80
2018-08-23T02:39:31.297Z,20.80
2018-08-23T02:41:58.521Z,20.70
2018-08-23T02:44:25.621Z,20.60
2018-08-23T02:46:52.712Z,20.50
2018-08-23T02:49:19.801Z,20.50
2018-08-23T02:51:49.869Z,20.50
2018-08-23T02:54:16.988Z,20.40
2018-08-23T02:56:46.925Z,20.30
2018-08-23T02:59:14.037Z,20.20
2018-08-23T03:01:45.189Z,20.10
2018-08-23T03:04:13.454Z,20.00
2018-08-23T03:07:12.366Z,20.00
2018-08-23T03:09:41.562Z,20.00
2018-08-23T03:12:10.041Z,19.90
2018-08-23T03:14:37.653Z,19.90
2018-08-23T03:17:12.233Z,19.80
2018-08-23T03:19:50.061Z,19.70
2018-08-23T03:22:18.031Z,19.60
2018-08-23T03:24:45.130Z,19.50
2018-08-23T03:27:12.224Z,19.50
2018-08-23T03:29:39.313Z,19.40
2018-08-23T03:32:06.454Z,19.50
2018-08-23T03:34:33.626Z,19.40
2018-08-23T03:37:00.770Z,19.40
2018-08-23T03:39:27.925Z,19.30
2018-08-23T03:41:55.076Z,19.30
2018-08-23T03:44:28.045Z,19.20
2018-08-23T03:46:55.333Z,19.20
2018-08-23T03:49:27.457Z,19.20
2018-08-23T03:51:54.894Z,19.20
2018-08-23T03:54:22.041Z,19.30
2018-08-23T03:57:05.410Z,19.30
2018-08-23T03:59:32.542Z,19.40
2018-08-23T04:01:59.689Z,19.50
2018-08-23T04:04:26.829Z,19.50
2018-08-23T04:06:53.973Z,19.50
2018-08-23T04:09:21.118Z,19.50
2018-08-23T04:11:48.261Z,19.50
2018-08-23T04:14:15.398Z,19.50
2018-08-23T04:16:42.570Z,19.50
2018-08-23T04:19:09.705Z,19.50
2018-08-23T04:21:36.858Z,19.50
2018-08-23T04:24:04.262Z,19.40
2018-08-23T04:26:31.413Z,19.50
2018-08-23T04:28:58.553Z,19.50
2018-08-23T04:31:25.709Z,19.50
2018-08-23T04:33:52.855Z,19.50
2018-08-23T04:36:27.041Z,19.50
2018-08-23T04:38:59.786Z,19.50
2018-08-23T04:41:27.930Z,19.40
2018-08-23T04:43:57.886Z,19.40
2018-08-23T04:46:25.029Z,19.40
2018-08-23T04:48:52.173Z,19.50
2018-08-23T04:51:19.345Z,19.50
2018-08-23T04:53:46.509Z,19.50
2018-08-23T04:56:13.656Z,19.50
2018-08-23T04:58:40.945Z,19.50
2018-08-23T05:01:08.094Z,19.50
2018-08-23T05:03:35.246Z,19.40
2018-08-23T05:06:02.393Z,19.40
2018-08-23T05:08:29.537Z,19.40
2018-08-23T05:10:56.682Z,19.40
2018-08-23T05:13:23.813Z,19.40
2018-08-23T05:15:50.957Z,19.40
2018-08-23T05:18:18.114Z,19.50
2018-08-23T05:20:45.257Z,19.50
2018-08-23T05:23:12.446Z,19.60
2018-08-23T05:25:39.561Z,19.60
2018-08-23T05:28:19.210Z,19.60
2018-08-23T05:30:46.933Z,19.70
2018-08-23T05:33:16.054Z,19.70
2018-08-23T05:35:43.196Z,19.80
2018-08-23T05:38:10.748Z,19.80
2018-08-23T05:40:44.925Z,20.00
2018-08-23T05:43:12.926Z,20.00
2018-08-23T05:45:45.834Z,20.10
2018-08-23T05:48:19.702Z,20.20
2018-08-23T05:50:46.809Z,20.30
2018-08-23T05:53:15.357Z,20.30
2018-08-23T05:55:42.609Z,20.30
2018-08-23T05:58:13.945Z,20.40
2018-08-23T06:00:41.058Z,20.40
2018-08-23T06:03:08.189Z,20.40
2018-08-23T06:05:35.282Z,20.40
2018-08-23T06:08:02.381Z,20.40
2018-08-23T06:10:29.486Z,20.50
2018-08-23T06:12:56.590Z,20.60
2018-08-23T06:15:23.689Z,20.80
2018-08-23T06:17:50.809Z,21.00
2018-08-23T06:20:17.919Z,21.10
2018-08-23T06:22:45.012Z,21.30
2018-08-23T06:25:12.122Z,21.50
2018-08-23T06:27:39.210Z,21.60
2018-08-23T06:30:06.338Z,21.80
2018-08-23T06:32:33.449Z,22.00
2018-08-23T06:35:00.542Z,22.20
2018-08-23T06:37:27.664Z,22.50
2018-08-23T06:39:55.573Z,22.70
2018-08-23T06:42:38.910Z,23.20
2018-08-23T06:45:06.058Z,23.60
2018-08-23T06:47:33.217Z,24.00
2018-08-23T06:50:00.337Z,23.90
2018-08-23T06:52:34.012Z,23.90
2018-08-23T06:55:01.121Z,24.00
2018-08-23T06:57:42.217Z,23.90
2018-08-23T07:00:09.398Z,23.80
2018-08-23T07:02:41.274Z,23.70
2018-08-23T07:05:08.946Z,23.50
2018-08-23T07:07:36.046Z,23.20
2018-08-23T07:10:03.181Z,23.10
2018-08-23T07:12:30.265Z,22.90
2018-08-23T07:14:57.365Z,22.90
2018-08-23T07:17:25.433Z,22.80
2018-08-23T07:19:52.746Z,22.90
2018-08-23T07:22:22.218Z,22.90
2018-08-23T07:24:50.388Z,22.90
2018-08-23T07:27:18.656Z,22.90
2018-08-23T07:29:54.514Z,22.90
2018-08-23T07:32:23.727Z,23.00
2018-08-23T07:35:13.957Z,23.00
2018-08-23T07:37:42.384Z,23.10
2018-08-23T07:40:10.886Z,23.10
2018-08-23T07:42:38.951Z,23.20
2018-08-23T07:45:06.985Z,23.30
2018-08-23T07:47:41.333Z,23.40
2018-08-23T07:50:08.495Z,23.50
2018-08-23T07:52:36.357Z,23.50
2018-08-23T07:55:06.967Z,23.60
2018-08-23T07:57:38.182Z,23.60
2018-08-23T08:00:36.275Z,23.80
2018-08-23T08:03:08.021Z,24.00
2018-08-23T08:05:39.910Z,24.20
2018-08-23T08:08:10.620Z,24.40
2018-08-23T08:10:43.289Z,24.40
2018-08-23T08:13:12.967Z,24.80
2018-08-23T08:15:42.433Z,24.90
2018-08-23T08:18:17.666Z,24.80
2018-08-23T08:20:53.633Z,24.90
2018-08-23T08:23:22.785Z,25.00
2018-08-23T08:25:52.176Z,25.30
2018-08-23T08:28:21.296Z,25.40
2018-08-23T08:30:58.033Z,25.90
2018-08-23T08:33:32.778Z,26.10
2018-08-23T08:36:03.253Z,26.50
2018-08-23T08:38:33.133Z,26.50
2018-08-23T08:41:04.485Z,26.30
2018-08-23T08:43:34.009Z,26.30
2018-08-23T08:46:03.624Z,26.40
2018-08-23T08:48:32.129Z,26.50
2018-08-23T08:51:17.804Z,26.60
2018-08-23T08:53:45.362Z,26.30
2018-08-23T08:56:12.553Z,25.90
2018-08-23T08:58:40.537Z,26.00
2018-08-23T09:01:07.709Z,26.00
2018-08-23T09:03:36.106Z,26.20
2018-08-23T09:06:05.561Z,26.50
2018-08-23T09:08:32.977Z,26.50
2018-08-23T09:11:00.137Z,26.60
2018-08-23T09:13:33.049Z,26.60
2018-08-23T09:16:04.816Z,26.70
2018-08-23T09:18:32.052Z,26.60
2018-08-23T09:20:59.226Z,26.10
2018-08-23T09:23:26.385Z,25.80
2018-08-23T09:25:55.599Z,25.40
2018-08-23T09:28:22.775Z,25.00
2018-08-23T09:30:49.966Z,24.80
2018-08-23T09:33:22.809Z,25.00
2018-08-23T09:35:50.110Z,25.20
2018-08-23T09:38:17.353Z,25.30
2018-08-23T09:40:44.480Z,25.30
2018-08-23T09:43:11.641Z,25.20
2018-08-23T09:45:39.418Z,25.50
2018-08-23T09:48:06.707Z,25.70
2018-08-23T09:50:33.856Z,26.00
2018-08-23T09:53:01.021Z,26.80
2018-08-23T09:55:31.565Z,27.00
2018-08-23T09:57:59.013Z,27.70
2018-08-23T10:00:31.749Z,29.60
2018-08-23T10:03:04.502Z,30.60
2018-08-23T10:05:37.261Z,30.70
2018-08-23T10:08:10.231Z,29.90
2018-08-23T10:10:43.329Z,29.20
2018-08-23T10:13:16.314Z,29.20
2018-08-23T10:15:48.072Z,29.10
2018-08-23T10:18:21.973Z,28.60
2018-08-23T10:20:53.699Z,28.40
2018-08-23T10:23:22.414Z,28.30
2018-08-23T10:25:50.534Z,28.10
2018-08-23T10:28:18.859Z,27.70
2018-08-23T10:30:46.394Z,27.60
2018-08-23T10:33:13.722Z,28.20
2018-08-23T10:35:46.449Z,28.70
2018-08-23T10:38:14.948Z,29.90
2018-08-23T10:40:42.758Z,31.50
2018-08-23T10:43:09.985Z,31.90
2018-08-23T10:45:37.206Z,32.60
2018-08-23T10:48:15.688Z,32.00
2018-08-23T10:50:43.475Z,31.00
2018-08-23T10:53:10.573Z,30.90
2018-08-23T10:55:37.737Z,31.30
2018-08-23T10:58:04.998Z,32.10
2018-08-23T11:00:32.229Z,32.80
2018-08-23T11:02:59.401Z,32.60
2018-08-23T11:05:26.574Z,31.90
2018-08-23T11:07:59.486Z,31.80
2018-08-23T11:10:32.436Z,31.40
2018-08-23T11:13:05.193Z,31.10
2018-08-23T11:15:32.470Z,31.20
2018-08-23T11:18:05.257Z,31.40
2018-08-23T11:20:38.234Z,31.30
2018-08-23T11:23:05.824Z,31.10
2018-08-23T11:25:33.042Z,30.80
2018-08-23T11:28:04.841Z,30.70
2018-08-23T11:30:32.100Z,30.90
2018-08-23T11:32:59.269Z,31.00
2018-08-23T11:35:26.464Z,31.60
2018-08-23T11:37:53.677Z,32.40
2018-08-23T11:40:20.793Z,32.60
2018-08-23T11:42:47.951Z,32.80
2018-08-23T11:45:15.010Z,32.70
2018-08-23T11:47:42.104Z,33.00
2018-08-23T11:50:09.214Z,33.60
2018-08-23T11:52:36.330Z,33.50
2018-08-23T11:55:03.493Z,33.20
2018-08-23T11:57:30.573Z,33.60
2018-08-23T11:59:57.694Z,33.90
2018-08-23T12:02:24.829Z,34.70
2018-08-23T12:04:52.018Z,35.60
2018-08-23T12:07:19.189Z,35.10
2018-08-23T12:09:46.340Z,34.80
2018-08-23T12:12:13.550Z,34.90
2018-08-23T12:14:40.705Z,34.50
2018-08-23T12:17:07.860Z,33.20
2018-08-23T12:19:35.032Z,32.70
2018-08-23T12:22:02.193Z,31.30
2018-08-23T12:24:29.340Z,30.70
2018-08-23T12:26:56.515Z,30.10
2018-08-23T12:29:23.649Z,29.70
2018-08-23T12:31:53.122Z,29.40
2018-08-23T12:34:28.948Z,29.40
2018-08-23T12:37:01.845Z,29.50
2018-08-23T12:39:34.557Z,29.40
2018-08-23T12:42:07.301Z,29.00
2018-08-23T12:44:37.926Z,28.70
2018-08-23T12:47:05.052Z,28.40
2018-08-23T12:49:32.349Z,28.10
2018-08-23T12:51:59.363Z,27.90
2018-08-23T12:54:26.458Z,27.80
2018-08-23T12:56:53.569Z,27.50
2018-08-23T12:59:20.677Z,27.10
2018-08-23T13:01:47.873Z,26.80
2018-08-23T13:04:14.993Z,26.50
2018-08-23T13:06:42.098Z,25.80
2018-08-23T13:09:09.209Z,25.10
2018-08-23T13:11:36.353Z,24.20
2018-08-23T13:14:03.481Z,23.50
2018-08-23T13:16:30.621Z,22.60
2018-08-23T13:18:57.727Z,21.90
2018-08-23T13:21:24.845Z,21.40
2018-08-23T13:23:52.145Z,21.10
2018-08-23T13:26:19.266Z,20.70
2018-08-23T13:28:46.403Z,20.60
2018-08-23T13:31:13.580Z,20.40
2018-08-23T13:33:40.757Z,20.40
2018-08-23T13:36:07.942Z,20.40
2018-08-23T13:38:35.091Z,20.40
2018-08-23T13:41:02.261Z,20.40
2018-08-23T13:43:29.425Z,20.30
2018-08-23T13:45:56.581Z,20.20
2018-08-23T13:48:23.803Z,20.10
2018-08-23T13:50:50.941Z,19.90
2018-08-23T13:53:18.101Z,19.70
2018-08-23T13:55:45.246Z,19.60
2018-08-23T13:58:12.424Z,19.40
2018-08-23T14:00:40.542Z,19.40
2018-08-23T14:03:08.506Z,19.30
2018-08-23T14:05:36.118Z,19.30
2018-08-23T14:08:03.345Z,19.20
2018-08-23T14:10:30.637Z,19.20
2018-08-23T14:12:57.913Z,19.20
2018-08-23T14:15:30.577Z,19.20
2018-08-23T14:17:58.121Z,19.20
2018-08-23T14:20:25.342Z,19.20
2018-08-23T14:22:52.513Z,19.20
2018-08-23T14:25:19.693Z,19.20
2018-08-23T14:27:46.885Z,19.20
2018-08-23T14:30:14.157Z,19.20
2018-08-23T14:32:41.312Z,19.30
2018-08-23T14:35:08.421Z,19.40
2018-08-23T14:37:35.542Z,19.50
2018-08-23T14:40:02.725Z,19.50
2018-08-23T14:42:29.862Z,19.60
2018-08-23T14:44:56.973Z,19.60
2018-08-23T14:47:29.886Z,19.70
2018-08-23T14:49:57.001Z,19.90
2018-08-23T14:52:24.122Z,19.90
2018-08-23T14:54:51.325Z,20.00
2018-08-23T14:57:24.421Z,20.10
2018-08-23T14:59:51.521Z,20.00
2018-08-23T15:02:18.637Z,19.90
2018-08-23T15:04:46.764Z,20.00
2018-08-23T15:07:14.173Z,19.90
2018-08-23T15:09:41.281Z,19.90
2018-08-23T15:12:08.445Z,19.90
2018-08-23T15:14:35.660Z,19.90
2018-08-23T15:17:02.789Z,19.90
2018-08-23T15:19:29.913Z,20.00
2018-08-23T15:21:57.009Z,20.10
2018-08-23T15:24:24.110Z,20.10
2018-08-23T15:26:51.369Z,20.20
2018-08-23T15:29:18.374Z,20.20
2018-08-23T15:31:45.521Z,20.30
2018-08-23T15:34:12.627Z,20.30
2018-08-23T15:36:39.764Z,20.30
2018-08-23T15:39:10.557Z,20.30
2018-08-23T15:41:38.022Z,20.40
2018-08-23T15:44:05.373Z,20.40
2018-08-23T15:46:38.197Z,20.40
2018-08-23T15:49:05.325Z,20.50
2018-08-23T15:51:32.474Z,20.40
2018-08-23T15:53:59.629Z,20.40
2018-08-23T15:56:26.761Z,20.30
2018-08-23T15:58:53.988Z,20.20
2018-08-23T16:01:21.124Z,20.20
2018-08-23T16:03:48.290Z,20.20
2018-08-23T16:06:15.406Z,20.20
2018-08-23T16:08:48.074Z,20.20
2018-08-23T16:11:15.277Z,20.20
2018-08-23T16:13:42.426Z,20.30
2018-08-23T16:16:15.074Z,20.30
2018-08-23T16:18:47.937Z,20.40
2018-08-23T16:21:15.566Z,20.50
2018-08-23T16:23:42.654Z,20.50
2018-08-23T16:26:09.757Z,20.60
2018-08-23T16:28:36.853Z,20.60
2018-08-23T16:31:03.965Z,20.60
2018-08-23T16:33:31.077Z,20.70
2018-08-23T16:35:58.189Z,20.70
2018-08-23T16:38:25.342Z,20.70
2018-08-23T16:40:52.446Z,20.80
2018-08-23T16:43:19.591Z,20.80
2018-08-23T16:45:46.701Z,20.90
2018-08-23T16:48:13.809Z,20.90
2018-08-23T16:50:40.974Z,21.00
2018-08-23T16:53:08.111Z,21.00
2018-08-23T16:55:35.246Z,21.10
2018-08-23T16:58:02.360Z,21.10
2018-08-23T17:00:29.557Z,21.10
2018-08-23T17:02:56.672Z,21.10
2018-08-23T17:05:23.797Z,21.20
2018-08-23T17:07:50.901Z,21.30
2018-08-23T17:10:18.111Z,21.40
2018-08-23T17:12:45.165Z,21.60
2018-08-23T17:15:15.014Z,21.70
2018-08-23T17:17:47.467Z,22.00
2018-08-23T17:20:14.633Z,22.40
2018-08-23T17:22:41.750Z,22.80
2018-08-23T17:25:08.907Z,23.10
2018-08-23T17:27:35.997Z,23.30
2018-08-23T17:30:03.126Z,23.60
2018-08-23T17:32:30.254Z,23.70
2018-08-23T17:34:57.357Z,23.50
2018-08-23T17:37:24.474Z,23.20
2018-08-23T17:39:51.641Z,22.70
2018-08-23T17:42:18.829Z,22.40
2018-08-23T17:44:46.005Z,22.10
2018-08-23T17:47:13.146Z,21.80
2018-08-23T17:49:40.264Z,21.50
2018-08-23T17:52:07.421Z,21.30
2018-08-23T17:54:34.601Z,21.10
2018-08-23T17:57:01.685Z,21.00
2018-08-23T17:59:28.795Z,20.80
2018-08-23T18:01:55.921Z,20.60
2018-08-23T18:04:23.062Z,20.50
2018-08-23T18:06:50.205Z,20.30
2018-08-23T18:09:17.325Z,20.20
2018-08-23T18:11:44.472Z,20.20
2018-08-23T18:14:11.614Z,20.20
2018-08-23T18:16:44.390Z,20.10
2018-08-23T18:19:11.878Z,20.10
2018-08-23T18:21:39.994Z,20.00
2018-08-23T18:24:07.106Z,20.00
2018-08-23T18:26:34.259Z,20.00
2018-08-23T18:29:01.731Z,19.90
2018-08-23T18:31:28.891Z,19.80
2018-08-23T18:33:56.014Z,19.80
2018-08-23T18:36:23.118Z,19.80
2018-08-23T18:38:50.241Z,19.70
2018-08-23T18:41:17.465Z,19.70
2018-08-23T18:43:44.589Z,19.60
2018-08-23T18:46:11.713Z,19.60
2018-08-23T18:48:38.846Z,19.50
2018-08-23T18:51:05.987Z,19.50
2018-08-23T18:53:33.105Z,19.40
2018-08-23T18:56:00.339Z,19.50
2018-08-23T18:58:27.530Z,19.50
2018-08-23T19:00:54.661Z,19.50
2018-08-23T19:03:21.785Z,19.50
2018-08-23T19:05:48.945Z,19.60
2018-08-23T19:08:16.041Z,19.60
2018-08-23T19:10:43.159Z,19.60
2018-08-23T19:13:10.376Z,19.70
2018-08-23T19:15:43.095Z,19.70
2018-08-23T19:18:10.223Z,19.70
2018-08-23T19:20:37.363Z,19.80
2018-08-23T19:23:04.505Z,19.80
2018-08-23T19:25:31.627Z,19.80
2018-08-23T19:27:58.769Z,19.80
2018-08-23T19:30:25.877Z,19.80
2018-08-23T19:32:53.078Z,19.80
2018-08-23T19:35:20.228Z,19.70
2018-08-23T19:37:47.402Z,19.70
2018-08-23T19:40:14.562Z,19.60
2018-08-23T19:42:41.766Z,19.50
2018-08-23T19:45:09.062Z,19.40
2018-08-23T19:47:43.889Z,19.40
2018-08-23T19:50:11.963Z,19.40
2018-08-23T19:52:39.176Z,19.50
2018-08-23T19:55:07.942Z,19.50
2018-08-23T19:57:35.097Z,19.50
2018-08-23T20:00:02.511Z,19.50
2018-08-23T20:02:29.890Z,19.60
2018-08-23T20:04:57.057Z,19.60
2018-08-23T20:07:24.246Z,19.60
2018-08-23T20:09:51.385Z,19.60
2018-08-23T20:12:18.666Z,19.70
2018-08-23T20:14:45.858Z,19.80
2018-08-23T20:17:13.033Z,19.80
2018-08-23T20:19:40.209Z,19.80
2018-08-23T20:22:07.806Z,19.80
2018-08-23T20:24:35.281Z,19.80
2018-08-23T20:27:02.526Z,19.90
2018-08-23T20:29:29.674Z,20.00
2018-08-23T20:31:56.837Z,20.00
2018-08-23T20:34:24.018Z,20.00
2018-08-23T20:36:51.185Z,19.90
2018-08-23T20:39:18.533Z,19.90
2018-08-23T20:41:46.365Z,19.80
2018-08-23T20:44:13.546Z,19.70
2018-08-23T20:46:40.973Z,19.70
2018-08-23T20:49:08.549Z,19.70
2018-08-23T20:51:36.202Z,19.70
2018-08-23T20:54:03.394Z,19.70
2018-08-23T20:56:30.581Z,19.70
2018-08-23T20:58:57.969Z,19.70
2018-08-23T21:01:25.182Z,19.80
2018-08-23T21:03:52.397Z,19.80
2018-08-23T21:06:19.489Z,19.90
2018-08-23T21:08:46.726Z,19.90
2018-08-23T21:11:13.973Z,19.90
2018-08-23T21:13:41.120Z,19.90
2018-08-23T21:16:08.309Z,19.90
2018-08-23T21:18:35.465Z,19.90
2018-08-23T21:21:02.624Z,19.90
2018-08-23T21:23:29.989Z,19.90
2018-08-23T21:25:57.153Z,19.80
2018-08-23T21:28:24.344Z,19.80
2018-08-23T21:30:51.501Z,19.80
2018-08-23T21:33:18.661Z,19.80
2018-08-23T21:35:46.057Z,19.80
2018-08-23T21:38:13.241Z,19.80
2018-08-23T21:40:40.389Z,19.80
2018-08-23T21:43:07.565Z,19.80
2018-08-23T21:45:34.724Z,19.90
2018-08-23T21:48:01.885Z,19.90
2018-08-23T21:50:29.061Z,19.90
2018-08-23T21:52:56.226Z,19.90
2018-08-23T21:55:29.181Z,19.80
2018-08-23T21:57:56.304Z,19.80
2018-08-23T22:00:23.506Z,19.80
2018-08-23T22:02:50.629Z,19.80
2018-08-23T22:05:17.786Z,19.70
2018-08-23T22:07:44.906Z,19.70
2018-08-23T22:10:12.026Z,19.70
2018-08-23T22:12:39.137Z,19.70
2018-08-23T22:15:06.286Z,19.70
2018-08-23T22:17:33.406Z,19.70
2018-08-23T22:20:00.498Z,19.60
2018-08-23T22:22:27.618Z,19.60
2018-08-23T22:24:54.726Z,19.50
2018-08-23T22:27:21.841Z,19.50
2018-08-23T22:29:48.970Z,19.50
2018-08-23T22:32:16.117Z,19.40
2018-08-23T22:34:43.238Z,19.40
2018-08-23T22:37:10.368Z,19.30
2018-08-23T22:39:37.518Z,19.30
2018-08-23T22:42:04.736Z,19.30
2018-08-23T22:44:31.841Z,19.20
2018-08-23T22:46:59.017Z,19.20
2018-08-23T22:49:26.134Z,19.10
2018-08-23T22:51:53.252Z,19.10
2018-08-23T22:54:20.433Z,19.10
2018-08-23T22:56:47.594Z,19.00
2018-08-23T22:59:14.757Z,19.00
2018-08-23T23:01:41.954Z,18.90
2018-08-23T23:04:14.953Z,18.80
2018-08-23T23:06:42.254Z,18.80
2018-08-23T23:09:11.709Z,18.70
2018-08-23T23:11:39.011Z,18.70
2018-08-23T23:14:06.461Z,18.60
2018-08-23T23:16:33.724Z,18.60
2018-08-23T23:19:00.997Z,18.50
2018-08-23T23:21:28.189Z,18.40
2018-08-23T23:23:55.389Z,18.40
2018-08-23T23:26:22.717Z,18.30
2018-08-23T23:28:49.869Z,18.20
2018-08-23T23:31:17.262Z,18.20
2018-08-23T23:33:44.890Z,18.10
2018-08-23T23:36:12.098Z,18.10
2018-08-23T23:38:39.255Z,18.00
2018-08-23T23:41:06.457Z,18.00
2018-08-23T23:43:33.600Z,17.90
2018-08-23T23:46:00.853Z,17.90
2018-08-23T23:48:28.108Z,17.90
2018-08-23T23:50:55.302Z,17.90
2018-08-23T23:53:22.462Z,17.80
2018-08-23T23:55:49.606Z,17.70
2018-08-23T23:58:16.775Z,17.70
